Ana Sayfa
METAR-TAF:

METAR-TAF

Havaalanları :

Mineral Wells Airport

Mineral Wells, Teksas, Amerika Birleşik Devletleri

Enlem: 32-46-54N, Boylam: 098-03-37W, yükseklik: 297 m

Güncel hava durumu gözlemi

Rapor saat 01:53 UTC de 59 dakika önce yapıldı.
Rüzgar güneydoğudan 13 kt ve 18 kt'a kadar ani rüzgarlar
Sıcaklık 29°C
Nem 55%
Basınç 1013 hPa
Görüş mesafesi: 16.1 km
Açık gökyüzü

METAR: KMWL 210153Z AUTO 14013G18KT 10SM CLR 29/19 A2992 RMK AO2 SLP115 T02940189

Saat: 21:52 (02:52 UTC)


TAF: eksik

4.000'den fazla havaalanı için hava durumu gözlemleri ve tahminleri (METAR ve TAF raporları).

Kullanılabilir istasyonlar harita üzerinde sarı ve kırmızı noktalarla gösterilir.

İstasyonun adını görmek için fareyi noktanın üzerinde gezdirin.

Sonrasında hava gözlem ve tahminlerini görmek için tıklayın.

Haritayı değiştirmek için: yaklaştırmak için siyah artı işaretli yeşil düğmeye ve uzaklaştırmak için de eksi işaretli düğmeye hızla tıklayın; bitişik haritalar için yeşil okları kullanın.


METAR-TAF: